< < Back
Terminal Aerodrome Forecast


Current Version              Previous Versions:   1  2  3  4  5  6  7  8  9  

Terminal Aerodrome Forecast

931
FTUS42 KFFC 311600 AAA
TAFAHN
TAF AMD
KAHN 311600Z 3116/0112 26008G16KT P6SM SCT050
     FM311900 26011KT P6SM VCSH BKN050
      TEMPO 3120/3124 5SM -TSRA BR BKN025CB
     FM010300 26007KT P6SM VCSH SCT050 BKN100
     FM010500 25005KT P6SM SCT070 BKN120=



Latest METAR

072
SAUS70 KWBC 311800 RRA
MTRAHN
METAR KAHN 311751Z 29015G22KT 9SM CLR 25/06 A3000 RMK AO2 SLP154
T02500056 10256 20044 58028


USA.gov is the U.S. government's official web portal to all federal, state and local government web resources and services.